createdAt,value
2023-01-27T00:02:10.868Z,25.43
2023-01-27T00:04:40.573Z,29.85
2023-01-27T00:07:10.305Z,35.78
2023-01-27T00:09:37.456Z,30.00
2023-01-27T00:12:23.199Z,34.63
2023-01-27T00:14:50.365Z,41.50
2023-01-27T00:17:17.464Z,41.15
2023-01-27T00:19:46.767Z,44.90
2023-01-27T00:22:32.509Z,40.65
2023-01-27T00:24:59.909Z,31.38
2023-01-27T00:27:27.318Z,25.77
2023-01-27T00:29:57.219Z,38.85
2023-01-27T00:32:45.973Z,38.78
2023-01-27T00:35:13.302Z,43.67
2023-01-27T00:37:42.782Z,35.42
2023-01-27T00:40:12.144Z,34.80
2023-01-27T00:42:39.387Z,32.10
2023-01-27T00:45:26.173Z,28.75
2023-01-27T00:47:53.513Z,16.70
2023-01-27T00:50:23.250Z,29.42
2023-01-27T00:52:52.977Z,27.17
2023-01-27T00:55:20.936Z,28.88
2023-01-27T00:57:50.206Z,31.35
2023-01-27T01:00:19.770Z,24.80
2023-01-27T01:02:47.019Z,29.85
2023-01-27T01:05:14.524Z,26.27
2023-01-27T01:07:42.104Z,26.42
2023-01-27T01:10:10.176Z,21.23
2023-01-27T01:12:37.533Z,33.03
2023-01-27T01:15:05.185Z,28.13
2023-01-27T01:17:32.477Z,37.83
2023-01-27T01:19:59.821Z,22.27
2023-01-27T01:22:27.088Z,27.30
2023-01-27T01:24:59.058Z,31.50
2023-01-27T01:27:29.491Z,33.72
2023-01-27T01:29:56.741Z,35.23
2023-01-27T01:32:23.908Z,26.67
2023-01-27T01:34:51.686Z,36.58
2023-01-27T01:37:18.898Z,30.48
2023-01-27T01:39:46.125Z,23.60
2023-01-27T01:42:13.317Z,28.27
2023-01-27T01:44:44.592Z,27.83
2023-01-27T01:47:18.229Z,30.30
2023-01-27T01:49:50.427Z,27.70
2023-01-27T01:52:21.461Z,26.60
2023-01-27T01:54:53.302Z,26.47
2023-01-27T01:57:26.181Z,25.10
2023-01-27T02:00:02.042Z,27.40
2023-01-27T02:02:31.769Z,24.40
2023-01-27T02:05:06.281Z,22.13
2023-01-27T02:08:00.118Z,26.77
2023-01-27T02:10:29.525Z,23.05
2023-01-27T02:12:56.739Z,24.73
2023-01-27T02:15:26.538Z,25.10
2023-01-27T02:17:53.682Z,26.95
2023-01-27T02:20:45.512Z,24.27
2023-01-27T02:23:41.792Z,31.55
2023-01-27T02:26:28.448Z,27.10
2023-01-27T02:28:58.326Z,27.88
2023-01-27T02:31:26.647Z,28.88
2023-01-27T02:34:05.035Z,29.33
2023-01-27T02:36:37.190Z,19.88
2023-01-27T02:39:08.635Z,23.60
2023-01-27T02:41:43.515Z,28.23
2023-01-27T02:44:14.130Z,26.85
2023-01-27T02:46:41.383Z,30.87
2023-01-27T02:49:08.724Z,20.73
2023-01-27T02:51:36.246Z,24.25
2023-01-27T02:54:03.539Z,28.35
2023-01-27T02:56:33.342Z,23.83
2023-01-27T02:59:02.900Z,30.30
2023-01-27T03:01:37.318Z,29.20
2023-01-27T03:04:06.109Z,25.58
2023-01-27T03:06:36.769Z,29.80
2023-01-27T03:09:05.355Z,29.75
2023-01-27T03:11:51.366Z,31.13
2023-01-27T03:14:19.127Z,29.80
2023-01-27T03:17:08.897Z,28.35
2023-01-27T03:19:39.006Z,28.45
2023-01-27T03:22:08.195Z,29.65
2023-01-27T03:24:39.697Z,23.50
2023-01-27T03:27:07.118Z,23.73
2023-01-27T03:29:56.713Z,18.15
2023-01-27T03:32:26.761Z,26.20
2023-01-27T03:35:15.451Z,28.63
2023-01-27T03:38:05.921Z,32.47
2023-01-27T03:40:54.280Z,27.80
2023-01-27T03:43:40.035Z,29.48
2023-01-27T03:46:18.503Z,28.27
2023-01-27T03:48:53.996Z,29.38
2023-01-27T03:51:24.381Z,30.37
2023-01-27T03:53:51.737Z,29.45
2023-01-27T03:56:20.844Z,29.42
2023-01-27T03:58:50.230Z,29.42
2023-01-27T04:01:20.761Z,26.98
2023-01-27T04:04:10.028Z,30.80
2023-01-27T04:06:52.615Z,35.05
2023-01-27T04:09:31.518Z,32.50
2023-01-27T04:12:01.844Z,30.20
2023-01-27T04:14:30.262Z,32.42
2023-01-27T04:17:03.573Z,34.27
2023-01-27T04:19:30.866Z,29.45
2023-01-27T04:21:59.172Z,32.22
2023-01-27T04:24:26.829Z,30.67
2023-01-27T04:26:57.549Z,31.00
2023-01-27T04:29:28.625Z,36.20
2023-01-27T04:31:58.755Z,32.78
2023-01-27T04:34:28.624Z,36.65
2023-01-27T04:36:59.757Z,34.10
2023-01-27T04:39:29.513Z,32.08
2023-01-27T04:41:57.467Z,30.77
2023-01-27T04:44:25.189Z,25.08
2023-01-27T04:46:55.215Z,30.55
2023-01-27T04:49:26.880Z,36.42
2023-01-27T04:51:56.571Z,34.50
2023-01-27T04:54:26.299Z,32.73
2023-01-27T04:56:59.305Z,26.85
2023-01-27T04:59:27.112Z,32.53
2023-01-27T05:01:56.638Z,24.00
2023-01-27T05:04:25.632Z,29.98
2023-01-27T05:06:57.361Z,30.57
2023-01-27T05:09:24.747Z,27.17
2023-01-27T05:11:54.499Z,31.25
2023-01-27T05:14:23.615Z,31.35
2023-01-27T05:16:51.294Z,31.90
2023-01-27T05:19:21.067Z,28.93
2023-01-27T05:21:53.006Z,28.60
2023-01-27T05:24:22.536Z,31.65
2023-01-27T05:26:49.906Z,12.63
2023-01-27T05:29:17.085Z,27.67
2023-01-27T05:31:44.398Z,28.30
2023-01-27T05:34:13.992Z,28.05
2023-01-27T05:36:43.244Z,27.67
2023-01-27T05:39:12.868Z,28.13
2023-01-27T05:41:40.008Z,25.13
2023-01-27T05:44:07.201Z,17.93
2023-01-27T05:46:39.521Z,22.70
2023-01-27T05:49:09.738Z,23.75
2023-01-27T05:51:40.779Z,27.83
2023-01-27T05:54:09.618Z,21.77
2023-01-27T05:56:36.805Z,22.63
2023-01-27T05:59:07.050Z,20.70
2023-01-27T06:01:35.432Z,26.70
2023-01-27T06:04:05.070Z,21.63
2023-01-27T06:06:33.237Z,25.05
2023-01-27T06:09:00.523Z,23.60
2023-01-27T06:11:28.107Z,29.88
2023-01-27T06:13:55.677Z,28.50
2023-01-27T06:16:23.926Z,30.23
2023-01-27T06:18:51.209Z,27.80
2023-01-27T06:21:21.213Z,23.80
2023-01-27T06:23:49.272Z,23.77
2023-01-27T06:26:19.923Z,22.75
2023-01-27T06:28:47.795Z,29.65
2023-01-27T06:31:18.008Z,15.93
2023-01-27T06:33:47.950Z,28.60
2023-01-27T06:36:18.969Z,32.78
2023-01-27T06:38:52.005Z,26.67
2023-01-27T06:41:22.083Z,23.02
2023-01-27T06:43:49.267Z,31.55
2023-01-27T06:46:18.976Z,27.07
2023-01-27T06:48:46.283Z,25.02
2023-01-27T06:51:16.030Z,22.52
2023-01-27T06:53:45.457Z,25.60
2023-01-27T06:56:12.773Z,22.98
2023-01-27T06:58:39.896Z,24.63
2023-01-27T07:01:09.443Z,24.77
2023-01-27T07:03:36.752Z,28.75
2023-01-27T07:06:04.302Z,20.33
2023-01-27T07:08:31.459Z,24.92
2023-01-27T07:11:01.834Z,20.90
2023-01-27T07:13:29.108Z,24.10
2023-01-27T07:15:56.743Z,15.82
2023-01-27T07:18:24.302Z,27.00
2023-01-27T07:20:53.734Z,17.25
2023-01-27T07:23:23.254Z,24.90
2023-01-27T07:25:55.594Z,28.08
2023-01-27T07:28:35.757Z,15.13
2023-01-27T07:31:12.035Z,19.17
2023-01-27T07:33:40.877Z,23.80
2023-01-27T07:36:08.307Z,26.57
2023-01-27T07:38:35.554Z,23.75
2023-01-27T07:41:19.980Z,27.63
2023-01-27T07:43:53.038Z,20.58
2023-01-27T07:46:23.191Z,27.52
2023-01-27T07:48:57.432Z,20.77
2023-01-27T07:51:33.325Z,29.77
2023-01-27T07:54:04.136Z,24.63
2023-01-27T07:56:32.296Z,23.80
2023-01-27T07:58:59.459Z,24.67
2023-01-27T08:01:26.737Z,25.87
2023-01-27T08:03:58.747Z,25.48
2023-01-27T08:06:25.994Z,22.83
2023-01-27T08:08:53.448Z,18.20
2023-01-27T08:11:20.629Z,26.45
2023-01-27T08:14:13.449Z,25.23
2023-01-27T08:16:42.757Z,20.40
2023-01-27T08:19:12.191Z,25.45
2023-01-27T08:22:02.688Z,16.52
2023-01-27T08:24:30.280Z,24.10
2023-01-27T08:27:00.968Z,31.77
2023-01-27T08:29:29.517Z,29.05
2023-01-27T08:31:59.162Z,27.08
2023-01-27T08:34:28.787Z,25.88
2023-01-27T08:36:59.265Z,25.20
2023-01-27T08:39:32.737Z,18.50
2023-01-27T08:42:14.017Z,24.05
2023-01-27T08:44:55.240Z,33.83
2023-01-27T08:47:59.234Z,23.55
2023-01-27T08:50:26.451Z,23.02
2023-01-27T08:52:53.639Z,23.43
2023-01-27T08:55:20.856Z,27.55
2023-01-27T08:57:48.033Z,23.40
2023-01-27T09:00:17.812Z,18.15
2023-01-27T09:02:46.671Z,16.02
2023-01-27T09:05:14.664Z,26.73
2023-01-27T09:07:41.838Z,21.63
2023-01-27T09:10:16.578Z,24.30
2023-01-27T09:12:44.462Z,12.90
2023-01-27T09:15:14.398Z,22.67
2023-01-27T09:17:44.233Z,23.30
2023-01-27T09:20:12.598Z,27.48
2023-01-27T09:22:44.149Z,27.70
2023-01-27T09:25:16.940Z,23.63
2023-01-27T09:27:45.017Z,25.08
2023-01-27T09:30:14.817Z,27.43
2023-01-27T09:32:42.698Z,27.13
2023-01-27T09:35:10.373Z,20.30
2023-01-27T09:37:47.458Z,31.08
2023-01-27T09:40:30.422Z,29.20
2023-01-27T09:43:08.909Z,25.13
2023-01-27T09:46:05.366Z,20.30
2023-01-27T09:48:52.614Z,22.80
2023-01-27T09:51:41.056Z,14.30
2023-01-27T09:54:23.985Z,19.15
2023-01-27T09:57:03.362Z,25.73
2023-01-27T09:59:48.107Z,22.65
2023-01-27T10:02:27.763Z,24.67
2023-01-27T10:05:13.594Z,22.52
2023-01-27T10:07:57.068Z,26.90
2023-01-27T10:10:47.990Z,23.13
2023-01-27T10:13:36.506Z,18.95
2023-01-27T10:16:20.320Z,17.58
2023-01-27T10:19:20.925Z,12.02
2023-01-27T10:22:06.726Z,18.60
2023-01-27T10:25:00.133Z,17.33
2023-01-27T10:27:35.948Z,20.25
2023-01-27T10:30:25.449Z,20.33
2023-01-27T10:33:02.061Z,11.18
2023-01-27T10:35:35.626Z,28.63
2023-01-27T10:38:32.231Z,20.77
2023-01-27T10:41:50.113Z,13.98
2023-01-27T10:45:03.450Z,20.85
2023-01-27T10:47:57.445Z,22.33
2023-01-27T10:50:33.653Z,18.77
2023-01-27T10:53:12.937Z,17.60
2023-01-27T10:56:08.767Z,23.70
2023-01-27T10:58:51.643Z,18.58
2023-01-27T11:01:25.771Z,14.60
2023-01-27T11:04:11.926Z,22.17
2023-01-27T11:06:42.232Z,21.77
2023-01-27T11:09:45.096Z,23.02
2023-01-27T11:12:16.198Z,22.73
2023-01-27T11:14:52.079Z,17.05
2023-01-27T11:17:42.642Z,24.65
2023-01-27T11:20:43.773Z,19.23
2023-01-27T11:23:10.966Z,18.67
2023-01-27T11:25:58.174Z,23.23
2023-01-27T11:28:41.860Z,20.63
2023-01-27T11:31:45.022Z,21.33
2023-01-27T11:34:33.763Z,11.87
2023-01-27T11:37:09.885Z,26.17
2023-01-27T11:39:37.281Z,22.23
2023-01-27T11:42:04.582Z,16.27
2023-01-27T11:44:35.355Z,21.83
2023-01-27T11:47:06.957Z,11.70
2023-01-27T11:49:46.191Z,17.83
2023-01-27T11:52:19.915Z,13.15
2023-01-27T11:54:56.590Z,13.80
2023-01-27T11:57:25.854Z,19.23
2023-01-27T12:00:01.556Z,22.97
2023-01-27T12:02:59.760Z,8.65
2023-01-27T12:05:41.192Z,12.57
2023-01-27T12:08:09.172Z,15.43
2023-01-27T12:10:40.182Z,17.08
2023-01-27T12:13:17.143Z,10.73
2023-01-27T12:15:58.699Z,15.60
2023-01-27T12:18:26.688Z,9.98
2023-01-27T12:21:02.407Z,12.27
2023-01-27T12:23:37.921Z,18.08
2023-01-27T12:26:09.296Z,15.13
2023-01-27T12:28:40.170Z,10.85
2023-01-27T12:31:13.854Z,6.90
2023-01-27T12:33:46.035Z,6.32
2023-01-27T12:36:19.916Z,18.00
2023-01-27T12:38:57.782Z,15.30
2023-01-27T12:41:31.759Z,10.75
2023-01-27T12:44:15.196Z,6.82
2023-01-27T12:47:03.043Z,9.13
2023-01-27T12:49:40.669Z,14.13
2023-01-27T12:52:18.517Z,9.73
2023-01-27T12:54:51.316Z,21.35
2023-01-27T12:57:23.075Z,16.25
2023-01-27T12:59:58.016Z,8.70
2023-01-27T13:02:30.659Z,11.35
2023-01-27T13:05:05.170Z,10.97
2023-01-27T13:07:39.416Z,14.00
2023-01-27T13:10:20.057Z,16.50
2023-01-27T13:12:59.326Z,8.50
2023-01-27T13:15:31.651Z,13.70
2023-01-27T13:18:01.278Z,11.00
2023-01-27T13:20:42.895Z,9.90
2023-01-27T13:23:18.750Z,8.85
2023-01-27T13:26:02.597Z,11.35
2023-01-27T13:28:51.768Z,7.38
2023-01-27T13:31:43.621Z,13.30
2023-01-27T13:34:17.518Z,15.82
2023-01-27T13:36:53.555Z,14.52
2023-01-27T13:39:23.640Z,12.70
2023-01-27T13:42:17.848Z,13.15
2023-01-27T13:44:59.167Z,15.77
2023-01-27T13:47:51.585Z,13.35
2023-01-27T13:50:30.206Z,10.77
2023-01-27T13:53:03.930Z,10.45
2023-01-27T13:55:39.922Z,14.25
2023-01-27T13:58:22.187Z,8.80
2023-01-27T14:01:11.287Z,12.90
2023-01-27T14:03:46.003Z,7.40
2023-01-27T14:06:40.962Z,13.18
2023-01-27T14:09:18.977Z,14.48
2023-01-27T14:12:16.545Z,9.33
2023-01-27T14:15:18.271Z,8.07
2023-01-27T14:17:57.766Z,13.48
2023-01-27T14:20:45.807Z,11.57
2023-01-27T14:23:18.807Z,13.18
2023-01-27T14:26:34.581Z,10.83
2023-01-27T14:29:21.401Z,17.17
2023-01-27T14:31:58.702Z,13.57
2023-01-27T14:34:36.783Z,14.88
2023-01-27T14:37:34.675Z,10.25
2023-01-27T14:40:16.866Z,15.93
2023-01-27T14:43:02.007Z,8.60
2023-01-27T14:45:38.681Z,16.20
2023-01-27T14:48:35.165Z,13.45
2023-01-27T14:51:16.134Z,11.25
2023-01-27T14:54:04.327Z,17.67
2023-01-27T14:57:01.242Z,15.02
2023-01-27T14:59:28.410Z,6.88
2023-01-27T15:02:03.646Z,18.52
2023-01-27T15:04:30.846Z,18.73
2023-01-27T15:07:17.798Z,22.53
2023-01-27T15:10:16.223Z,18.05
2023-01-27T15:13:01.385Z,16.80
2023-01-27T15:15:54.108Z,20.00
2023-01-27T15:18:42.656Z,16.38
2023-01-27T15:21:45.011Z,22.17
2023-01-27T15:24:18.406Z,18.45
2023-01-27T15:26:47.951Z,12.65
2023-01-27T15:29:19.812Z,15.35
2023-01-27T15:32:26.539Z,11.35
2023-01-27T15:35:34.646Z,15.17
2023-01-27T15:38:04.701Z,22.80
2023-01-27T15:40:56.500Z,19.70
2023-01-27T15:43:28.720Z,12.35
2023-01-27T15:45:56.846Z,15.77
2023-01-27T15:48:34.457Z,12.53
2023-01-27T15:51:06.098Z,20.77
2023-01-27T15:53:40.514Z,14.15
2023-01-27T15:56:10.815Z,19.33
2023-01-27T15:58:42.875Z,19.05
2023-01-27T16:01:25.043Z,16.50
2023-01-27T16:04:06.022Z,16.98
2023-01-27T16:06:34.571Z,25.05
2023-01-27T16:09:08.213Z,19.17
2023-01-27T16:11:35.360Z,18.83
2023-01-27T16:14:11.816Z,13.70
2023-01-27T16:17:00.610Z,14.05
2023-01-27T16:19:32.945Z,19.40
2023-01-27T16:22:07.177Z,22.58
2023-01-27T16:25:02.266Z,24.17
2023-01-27T16:28:13.761Z,15.37
2023-01-27T16:30:49.074Z,20.00
2023-01-27T16:33:31.126Z,20.25
2023-01-27T16:36:16.498Z,18.48
2023-01-27T16:38:45.668Z,14.20
2023-01-27T16:41:37.849Z,14.17
2023-01-27T16:44:22.322Z,22.65
2023-01-27T16:46:52.765Z,19.83
2023-01-27T16:49:25.754Z,11.43
2023-01-27T16:51:58.126Z,20.17
2023-01-27T16:54:34.055Z,13.97
2023-01-27T16:57:04.013Z,17.02
2023-01-27T16:59:36.094Z,17.25
2023-01-27T17:02:08.266Z,24.90
2023-01-27T17:04:37.751Z,26.20
2023-01-27T17:07:13.519Z,21.63
2023-01-27T17:09:49.413Z,21.77
2023-01-27T17:12:50.935Z,25.48
2023-01-27T17:15:21.423Z,13.35
2023-01-27T17:17:52.134Z,23.33
2023-01-27T17:20:23.531Z,23.57
2023-01-27T17:22:54.614Z,19.75
2023-01-27T17:25:29.961Z,15.35
2023-01-27T17:28:00.350Z,24.27
2023-01-27T17:30:34.803Z,17.77
2023-01-27T17:33:05.118Z,25.03
2023-01-27T17:35:36.827Z,20.08
2023-01-27T17:38:14.917Z,21.17
2023-01-27T17:40:44.789Z,23.33
2023-01-27T17:43:37.740Z,23.15
2023-01-27T17:46:05.468Z,22.80
2023-01-27T17:48:58.136Z,21.95
2023-01-27T17:51:29.281Z,21.85
2023-01-27T17:53:59.102Z,21.33
2023-01-27T17:56:34.792Z,20.67
2023-01-27T17:59:13.778Z,21.37
2023-01-27T18:01:43.398Z,20.88
2023-01-27T18:04:13.721Z,19.95
2023-01-27T18:06:43.142Z,23.67
2023-01-27T18:09:18.217Z,23.13
2023-01-27T18:11:57.481Z,20.70
2023-01-27T18:14:25.177Z,16.70
2023-01-27T18:17:02.102Z,22.27
2023-01-27T18:19:32.177Z,17.23
2023-01-27T18:22:15.087Z,20.83
2023-01-27T18:25:00.236Z,20.20
2023-01-27T18:27:27.562Z,26.70
2023-01-27T18:30:00.464Z,20.90
2023-01-27T18:32:35.817Z,25.60
2023-01-27T18:35:21.914Z,26.85
2023-01-27T18:38:22.704Z,24.60
2023-01-27T18:40:50.087Z,20.35
2023-01-27T18:43:17.312Z,25.23
2023-01-27T18:45:50.602Z,18.70
2023-01-27T18:48:18.339Z,26.60
2023-01-27T18:50:47.835Z,26.40
2023-01-27T18:53:18.013Z,15.52
2023-01-27T18:56:10.029Z,17.38
2023-01-27T18:58:40.981Z,25.70
2023-01-27T19:01:19.265Z,26.60
2023-01-27T19:03:46.560Z,14.83
2023-01-27T19:06:18.471Z,20.00
2023-01-27T19:08:46.001Z,23.40
2023-01-27T19:11:18.777Z,23.15
2023-01-27T19:13:48.275Z,21.85
2023-01-27T19:16:17.986Z,28.37
2023-01-27T19:18:45.300Z,24.80
2023-01-27T19:21:16.033Z,29.17
2023-01-27T19:23:44.867Z,30.67
2023-01-27T19:26:18.385Z,26.10
2023-01-27T19:29:14.855Z,23.73
2023-01-27T19:31:42.086Z,23.10
2023-01-27T19:34:11.253Z,29.80
2023-01-27T19:36:45.888Z,25.08
2023-01-27T19:39:16.931Z,27.67
2023-01-27T19:41:47.534Z,26.97
2023-01-27T19:44:15.440Z,29.23
2023-01-27T19:46:43.045Z,36.55
2023-01-27T19:49:19.910Z,29.95
2023-01-27T19:51:49.642Z,22.10
2023-01-27T19:54:17.118Z,30.50
2023-01-27T19:56:45.229Z,30.33
2023-01-27T19:59:12.643Z,32.35
2023-01-27T20:01:39.821Z,25.63
2023-01-27T20:04:07.132Z,32.85
2023-01-27T20:06:37.787Z,33.30
2023-01-27T20:09:04.934Z,33.42
2023-01-27T20:11:40.589Z,25.83
2023-01-27T20:14:13.754Z,33.50
2023-01-27T20:16:41.995Z,28.63
2023-01-27T20:19:15.448Z,32.53
2023-01-27T20:21:43.992Z,29.42
2023-01-27T20:24:19.877Z,37.42
2023-01-27T20:26:47.267Z,31.60
2023-01-27T20:29:19.345Z,28.35
2023-01-27T20:31:49.793Z,33.93
2023-01-27T20:34:19.473Z,36.22
2023-01-27T20:36:46.648Z,34.30
2023-01-27T20:39:13.885Z,28.17
2023-01-27T20:41:46.026Z,36.38
2023-01-27T20:44:15.705Z,33.23
2023-01-27T20:46:42.950Z,43.58
2023-01-27T20:49:10.199Z,39.58
2023-01-27T20:51:37.343Z,28.45
2023-01-27T20:54:07.649Z,35.70
2023-01-27T20:56:35.240Z,35.57
2023-01-27T20:59:07.076Z,35.08
2023-01-27T21:01:36.422Z,39.67
2023-01-27T21:04:03.627Z,39.67
2023-01-27T21:06:32.883Z,33.33
2023-01-27T21:09:00.099Z,35.03
2023-01-27T21:11:29.631Z,35.58
2023-01-27T21:13:56.945Z,26.33
2023-01-27T21:16:24.093Z,39.05
2023-01-27T21:18:51.301Z,28.02
2023-01-27T21:21:29.860Z,40.57
2023-01-27T21:24:00.343Z,33.38
2023-01-27T21:26:30.733Z,39.25
2023-01-27T21:28:57.918Z,36.08
2023-01-27T21:31:30.043Z,38.28
2023-01-27T21:34:01.331Z,37.50
2023-01-27T21:36:28.918Z,33.60
2023-01-27T21:38:56.971Z,41.58
2023-01-27T21:41:43.713Z,31.45
2023-01-27T21:44:43.921Z,34.85
2023-01-27T21:47:17.638Z,37.87
2023-01-27T21:50:02.847Z,33.70
2023-01-27T21:52:44.933Z,39.80
2023-01-27T21:55:14.109Z,34.40
2023-01-27T21:57:45.907Z,27.33
2023-01-27T22:00:15.210Z,34.00
2023-01-27T22:02:44.632Z,40.97
2023-01-27T22:05:12.948Z,33.58
2023-01-27T22:07:41.635Z,38.38
2023-01-27T22:10:14.936Z,35.28
2023-01-27T22:12:44.729Z,35.43
2023-01-27T22:15:14.487Z,29.98
2023-01-27T22:17:44.869Z,37.55
2023-01-27T22:20:15.722Z,39.85
2023-01-27T22:22:44.451Z,33.00
2023-01-27T22:25:15.625Z,35.90
2023-01-27T22:27:45.920Z,34.38
2023-01-27T22:30:15.767Z,30.15
2023-01-27T22:32:48.131Z,32.45
2023-01-27T22:35:17.290Z,24.88
2023-01-27T22:37:49.467Z,38.53
2023-01-27T22:40:17.890Z,22.38
2023-01-27T22:42:45.069Z,32.40
2023-01-27T22:45:13.013Z,33.10
2023-01-27T22:47:40.458Z,34.30
2023-01-27T22:50:08.807Z,31.37
2023-01-27T22:52:36.795Z,17.42
2023-01-27T22:55:07.878Z,31.25
2023-01-27T22:57:35.694Z,30.25
2023-01-27T23:00:06.457Z,28.38
2023-01-27T23:02:36.052Z,28.87
2023-01-27T23:05:05.869Z,32.95
2023-01-27T23:07:33.201Z,32.72
2023-01-27T23:10:02.446Z,32.70
2023-01-27T23:12:29.641Z,29.27
2023-01-27T23:15:01.803Z,38.50
2023-01-27T23:17:29.049Z,32.33
2023-01-27T23:20:01.024Z,34.25
2023-01-27T23:22:28.237Z,30.98
2023-01-27T23:24:57.745Z,30.35
2023-01-27T23:27:26.293Z,34.30
2023-01-27T23:29:53.404Z,32.20
2023-01-27T23:32:20.543Z,33.00
2023-01-27T23:34:50.407Z,31.30
2023-01-27T23:37:20.146Z,27.42
2023-01-27T23:39:49.647Z,33.47
2023-01-27T23:42:17.581Z,24.90
2023-01-27T23:44:45.483Z,30.88
2023-01-27T23:47:15.939Z,32.75
2023-01-27T23:49:43.135Z,34.40
2023-01-27T23:52:10.347Z,31.80
2023-01-27T23:54:37.506Z,33.20
2023-01-27T23:57:04.755Z,30.88
2023-01-27T23:59:31.873Z,36.45
